sensor_id;sensor_type;location;lat;lon;timestamp;P1;durP1;ratioP1;P2;durP2;ratioP2
18425;SDS011;9340;48.756;9.226;2022-07-24T00:00:46;12.32;;;11.32;;
18425;SDS011;9340;48.756;9.226;2022-07-24T00:03:13;12.77;;;11.77;;
18425;SDS011;9340;48.756;9.226;2022-07-24T00:05:40;12.45;;;11.27;;
18425;SDS011;9340;48.756;9.226;2022-07-24T00:08:06;13.63;;;12.52;;
18425;SDS011;9340;48.756;9.226;2022-07-24T00:10:33;12.90;;;11.75;;
18425;SDS011;9340;48.756;9.226;2022-07-24T00:13:00;13.45;;;12.25;;
18425;SDS011;9340;48.756;9.226;2022-07-24T00:15:27;11.93;;;10.98;;
18425;SDS011;9340;48.756;9.226;2022-07-24T00:17:57;13.40;;;12.25;;
18425;SDS011;9340;48.756;9.226;2022-07-24T00:20:24;12.38;;;11.27;;
18425;SDS011;9340;48.756;9.226;2022-07-24T00:22:51;11.52;;;10.50;;
18425;SDS011;9340;48.756;9.226;2022-07-24T00:25:17;11.43;;;10.52;;
18425;SDS011;9340;48.756;9.226;2022-07-24T00:27:44;11.35;;;10.45;;
18425;SDS011;9340;48.756;9.226;2022-07-24T00:30:11;11.73;;;10.73;;
18425;SDS011;9340;48.756;9.226;2022-07-24T00:32:38;11.93;;;10.93;;
18425;SDS011;9340;48.756;9.226;2022-07-24T00:35:07;12.93;;;11.73;;
18425;SDS011;9340;48.756;9.226;2022-07-24T00:37:34;13.15;;;11.90;;
18425;SDS011;9340;48.756;9.226;2022-07-24T00:40:01;11.70;;;10.80;;
18425;SDS011;9340;48.756;9.226;2022-07-24T00:42:28;11.18;;;10.27;;
18425;SDS011;9340;48.756;9.226;2022-07-24T00:44:55;11.75;;;10.80;;
18425;SDS011;9340;48.756;9.226;2022-07-24T00:47:21;11.88;;;10.88;;
18425;SDS011;9340;48.756;9.226;2022-07-24T00:49:48;11.90;;;10.80;;
18425;SDS011;9340;48.756;9.226;2022-07-24T00:52:16;12.55;;;11.52;;
18425;SDS011;9340;48.756;9.226;2022-07-24T00:54:43;12.35;;;11.25;;
18425;SDS011;9340;48.756;9.226;2022-07-24T00:57:11;11.98;;;10.93;;
18425;SDS011;9340;48.756;9.226;2022-07-24T00:59:38;11.80;;;10.70;;
18425;SDS011;9340;48.756;9.226;2022-07-24T01:02:05;12.13;;;11.13;;
18425;SDS011;9340;48.756;9.226;2022-07-24T01:04:31;11.85;;;10.95;;
18425;SDS011;9340;48.756;9.226;2022-07-24T01:06:58;11.77;;;10.88;;
18425;SDS011;9340;48.756;9.226;2022-07-24T01:09:26;11.10;;;10.23;;
18425;SDS011;9340;48.756;9.226;2022-07-24T01:11:53;12.50;;;11.40;;
18425;SDS011;9340;48.756;9.226;2022-07-24T01:14:20;12.50;;;11.43;;
18425;SDS011;9340;48.756;9.226;2022-07-24T01:16:48;11.70;;;10.68;;
18425;SDS011;9340;48.756;9.226;2022-07-24T01:19:14;12.45;;;11.55;;
18425;SDS011;9340;48.756;9.226;2022-07-24T01:21:45;12.07;;;11.15;;
18425;SDS011;9340;48.756;9.226;2022-07-24T01:24:13;13.18;;;12.07;;
18425;SDS011;9340;48.756;9.226;2022-07-24T01:26:40;13.27;;;12.27;;
18425;SDS011;9340;48.756;9.226;2022-07-24T01:29:07;12.70;;;11.65;;
18425;SDS011;9340;48.756;9.226;2022-07-24T01:31:34;13.68;;;12.57;;
18425;SDS011;9340;48.756;9.226;2022-07-24T01:34:01;12.55;;;11.45;;
18425;SDS011;9340;48.756;9.226;2022-07-24T01:36:28;13.18;;;12.07;;
18425;SDS011;9340;48.756;9.226;2022-07-24T01:38:56;13.00;;;12.00;;
18425;SDS011;9340;48.756;9.226;2022-07-24T01:41:23;12.50;;;11.55;;
18425;SDS011;9340;48.756;9.226;2022-07-24T01:43:50;13.30;;;12.10;;
18425;SDS011;9340;48.756;9.226;2022-07-24T01:46:17;12.75;;;11.65;;
18425;SDS011;9340;48.756;9.226;2022-07-24T01:48:44;12.95;;;11.85;;
18425;SDS011;9340;48.756;9.226;2022-07-24T01:51:10;12.48;;;11.43;;
18425;SDS011;9340;48.756;9.226;2022-07-24T01:53:37;13.23;;;12.13;;
18425;SDS011;9340;48.756;9.226;2022-07-24T01:56:06;12.60;;;11.60;;
18425;SDS011;9340;48.756;9.226;2022-07-24T01:58:32;12.23;;;11.15;;
18425;SDS011;9340;48.756;9.226;2022-07-24T02:01:00;11.75;;;10.85;;
18425;SDS011;9340;48.756;9.226;2022-07-24T02:03:26;11.93;;;10.93;;
18425;SDS011;9340;48.756;9.226;2022-07-24T02:05:53;12.32;;;11.32;;
18425;SDS011;9340;48.756;9.226;2022-07-24T02:08:20;11.50;;;10.60;;
18425;SDS011;9340;48.756;9.226;2022-07-24T02:10:47;13.27;;;12.10;;
18425;SDS011;9340;48.756;9.226;2022-07-24T02:13:16;13.13;;;11.93;;
18425;SDS011;9340;48.756;9.226;2022-07-24T02:15:43;12.60;;;11.57;;
18425;SDS011;9340;48.756;9.226;2022-07-24T02:18:09;13.43;;;12.32;;
18425;SDS011;9340;48.756;9.226;2022-07-24T02:20:36;12.95;;;11.75;;
18425;SDS011;9340;48.756;9.226;2022-07-24T02:23:03;12.45;;;11.38;;
18425;SDS011;9340;48.756;9.226;2022-07-24T02:25:30;12.27;;;11.20;;
18425;SDS011;9340;48.756;9.226;2022-07-24T02:27:57;11.63;;;10.73;;
18425;SDS011;9340;48.756;9.226;2022-07-24T02:30:25;13.68;;;12.43;;
18425;SDS011;9340;48.756;9.226;2022-07-24T02:32:52;12.75;;;11.65;;
18425;SDS011;9340;48.756;9.226;2022-07-24T02:35:19;13.57;;;12.40;;
18425;SDS011;9340;48.756;9.226;2022-07-24T02:37:45;11.82;;;10.80;;
18425;SDS011;9340;48.756;9.226;2022-07-24T02:40:12;13.30;;;12.15;;
18425;SDS011;9340;48.756;9.226;2022-07-24T02:42:40;12.80;;;11.77;;
18425;SDS011;9340;48.756;9.226;2022-07-24T02:45:07;12.98;;;11.98;;
18425;SDS011;9340;48.756;9.226;2022-07-24T02:47:38;13.82;;;12.63;;
18425;SDS011;9340;48.756;9.226;2022-07-24T02:50:13;12.15;;;11.05;;
18425;SDS011;9340;48.756;9.226;2022-07-24T02:52:40;12.20;;;11.00;;
18425;SDS011;9340;48.756;9.226;2022-07-24T02:55:07;13.60;;;12.40;;
18425;SDS011;9340;48.756;9.226;2022-07-24T02:57:35;12.68;;;11.68;;
18425;SDS011;9340;48.756;9.226;2022-07-24T03:00:03;12.95;;;11.93;;
18425;SDS011;9340;48.756;9.226;2022-07-24T03:02:35;13.30;;;12.10;;
18425;SDS011;9340;48.756;9.226;2022-07-24T03:05:03;13.57;;;12.35;;
18425;SDS011;9340;48.756;9.226;2022-07-24T03:07:30;12.73;;;11.73;;
18425;SDS011;9340;48.756;9.226;2022-07-24T03:09:57;13.07;;;11.88;;
18425;SDS011;9340;48.756;9.226;2022-07-24T03:12:24;12.90;;;11.80;;
18425;SDS011;9340;48.756;9.226;2022-07-24T03:14:51;12.02;;;10.95;;
18425;SDS011;9340;48.756;9.226;2022-07-24T03:17:17;12.25;;;11.27;;
18425;SDS011;9340;48.756;9.226;2022-07-24T03:19:45;13.52;;;12.32;;
18425;SDS011;9340;48.756;9.226;2022-07-24T03:22:12;14.20;;;12.80;;
18425;SDS011;9340;48.756;9.226;2022-07-24T03:24:39;14.27;;;12.88;;
18425;SDS011;9340;48.756;9.226;2022-07-24T03:27:05;12.02;;;10.95;;
18425;SDS011;9340;48.756;9.226;2022-07-24T03:29:32;12.32;;;11.30;;
18425;SDS011;9340;48.756;9.226;2022-07-24T03:32:00;13.55;;;12.45;;
18425;SDS011;9340;48.756;9.226;2022-07-24T03:34:26;12.82;;;11.73;;
18425;SDS011;9340;48.756;9.226;2022-07-24T03:36:54;13.73;;;12.53;;
18425;SDS011;9340;48.756;9.226;2022-07-24T03:39:21;13.38;;;12.07;;
18425;SDS011;9340;48.756;9.226;2022-07-24T03:41:48;13.03;;;11.93;;
18425;SDS011;9340;48.756;9.226;2022-07-24T03:44:15;12.55;;;11.35;;
18425;SDS011;9340;48.756;9.226;2022-07-24T03:46:42;12.85;;;11.65;;
18425;SDS011;9340;48.756;9.226;2022-07-24T03:49:08;13.43;;;12.30;;
18425;SDS011;9340;48.756;9.226;2022-07-24T03:51:35;13.30;;;12.13;;
18425;SDS011;9340;48.756;9.226;2022-07-24T03:54:03;13.20;;;12.10;;
18425;SDS011;9340;48.756;9.226;2022-07-24T03:56:30;13.23;;;12.13;;
18425;SDS011;9340;48.756;9.226;2022-07-24T03:58:57;13.50;;;12.25;;
18425;SDS011;9340;48.756;9.226;2022-07-24T04:01:23;14.45;;;13.15;;
18425;SDS011;9340;48.756;9.226;2022-07-24T04:03:50;13.65;;;12.55;;
18425;SDS011;9340;48.756;9.226;2022-07-24T04:06:17;13.20;;;11.90;;
18425;SDS011;9340;48.756;9.226;2022-07-24T04:08:44;14.27;;;13.07;;
18425;SDS011;9340;48.756;9.226;2022-07-24T04:11:13;13.50;;;12.30;;
18425;SDS011;9340;48.756;9.226;2022-07-24T04:13:40;13.48;;;12.27;;
18425;SDS011;9340;48.756;9.226;2022-07-24T04:16:07;14.13;;;12.75;;
18425;SDS011;9340;48.756;9.226;2022-07-24T04:18:34;13.18;;;11.98;;
18425;SDS011;9340;48.756;9.226;2022-07-24T04:21:00;13.75;;;12.55;;
18425;SDS011;9340;48.756;9.226;2022-07-24T04:23:27;13.15;;;12.00;;
18425;SDS011;9340;48.756;9.226;2022-07-24T04:25:54;14.30;;;13.07;;
18425;SDS011;9340;48.756;9.226;2022-07-24T04:28:22;14.15;;;12.90;;
18425;SDS011;9340;48.756;9.226;2022-07-24T04:30:49;14.38;;;13.05;;
18425;SDS011;9340;48.756;9.226;2022-07-24T04:33:15;12.60;;;11.52;;
18425;SDS011;9340;48.756;9.226;2022-07-24T04:35:42;13.07;;;12.07;;
18425;SDS011;9340;48.756;9.226;2022-07-24T04:38:09;14.48;;;13.07;;
18425;SDS011;9340;48.756;9.226;2022-07-24T04:40:35;14.10;;;12.48;;
18425;SDS011;9340;48.756;9.226;2022-07-24T04:43:02;14.20;;;12.90;;
18425;SDS011;9340;48.756;9.226;2022-07-24T04:45:31;13.27;;;12.13;;
18425;SDS011;9340;48.756;9.226;2022-07-24T04:47:58;13.45;;;12.15;;
18425;SDS011;9340;48.756;9.226;2022-07-24T04:50:24;14.98;;;13.73;;
18425;SDS011;9340;48.756;9.226;2022-07-24T04:52:51;14.05;;;12.80;;
18425;SDS011;9340;48.756;9.226;2022-07-24T04:55:18;14.10;;;12.88;;
18425;SDS011;9340;48.756;9.226;2022-07-24T04:57:45;14.38;;;12.98;;
18425;SDS011;9340;48.756;9.226;2022-07-24T05:00:12;15.32;;;14.02;;
18425;SDS011;9340;48.756;9.226;2022-07-24T05:02:41;14.05;;;12.85;;
18425;SDS011;9340;48.756;9.226;2022-07-24T05:05:08;14.65;;;13.45;;
18425;SDS011;9340;48.756;9.226;2022-07-24T05:07:34;15.45;;;14.15;;
18425;SDS011;9340;48.756;9.226;2022-07-24T05:10:01;15.95;;;14.55;;
18425;SDS011;9340;48.756;9.226;2022-07-24T05:12:29;14.82;;;13.43;;
18425;SDS011;9340;48.756;9.226;2022-07-24T05:14:55;14.52;;;13.23;;
18425;SDS011;9340;48.756;9.226;2022-07-24T05:17:22;14.73;;;13.52;;
18425;SDS011;9340;48.756;9.226;2022-07-24T05:19:50;14.88;;;13.57;;
18425;SDS011;9340;48.756;9.226;2022-07-24T05:22:20;14.18;;;12.82;;
18425;SDS011;9340;48.756;9.226;2022-07-24T05:24:54;13.60;;;12.45;;
18425;SDS011;9340;48.756;9.226;2022-07-24T05:27:20;12.93;;;11.80;;
18425;SDS011;9340;48.756;9.226;2022-07-24T05:29:48;14.45;;;13.05;;
18425;SDS011;9340;48.756;9.226;2022-07-24T05:32:14;14.55;;;13.30;;
18425;SDS011;9340;48.756;9.226;2022-07-24T05:34:41;14.05;;;12.85;;
18425;SDS011;9340;48.756;9.226;2022-07-24T05:37:33;17.45;;;14.65;;
18425;SDS011;9340;48.756;9.226;2022-07-24T05:40:11;15.80;;;14.50;;
18425;SDS011;9340;48.756;9.226;2022-07-24T05:42:48;15.35;;;14.18;;
18425;SDS011;9340;48.756;9.226;2022-07-24T05:45:46;13.65;;;12.55;;
18425;SDS011;9340;48.756;9.226;2022-07-24T05:48:15;14.20;;;12.90;;
18425;SDS011;9340;48.756;9.226;2022-07-24T05:50:45;14.02;;;12.93;;
18425;SDS011;9340;48.756;9.226;2022-07-24T05:53:13;13.38;;;12.35;;
18425;SDS011;9340;48.756;9.226;2022-07-24T05:55:39;13.52;;;12.32;;
18425;SDS011;9340;48.756;9.226;2022-07-24T05:58:06;13.55;;;12.55;;
18425;SDS011;9340;48.756;9.226;2022-07-24T06:00:33;13.25;;;12.15;;
18425;SDS011;9340;48.756;9.226;2022-07-24T06:03:00;12.60;;;11.60;;
18425;SDS011;9340;48.756;9.226;2022-07-24T06:05:26;12.30;;;11.30;;
18425;SDS011;9340;48.756;9.226;2022-07-24T06:07:53;12.63;;;11.52;;
18425;SDS011;9340;48.756;9.226;2022-07-24T06:10:21;12.85;;;11.85;;
18425;SDS011;9340;48.756;9.226;2022-07-24T06:12:48;13.02;;;11.95;;
18425;SDS011;9340;48.756;9.226;2022-07-24T06:15:15;13.50;;;12.40;;
18425;SDS011;9340;48.756;9.226;2022-07-24T06:17:41;12.70;;;11.68;;
18425;SDS011;9340;48.756;9.226;2022-07-24T06:20:09;13.35;;;12.38;;
18425;SDS011;9340;48.756;9.226;2022-07-24T06:22:38;13.73;;;12.57;;
18425;SDS011;9340;48.756;9.226;2022-07-24T06:25:05;13.32;;;12.23;;
18425;SDS011;9340;48.756;9.226;2022-07-24T06:27:36;13.85;;;12.70;;
18425;SDS011;9340;48.756;9.226;2022-07-24T06:30:11;14.75;;;13.65;;
18425;SDS011;9340;48.756;9.226;2022-07-24T06:32:39;14.35;;;13.38;;
18425;SDS011;9340;48.756;9.226;2022-07-24T06:35:09;14.98;;;13.88;;
18425;SDS011;9340;48.756;9.226;2022-07-24T06:37:35;14.00;;;12.85;;
18425;SDS011;9340;48.756;9.226;2022-07-24T06:40:03;13.43;;;12.38;;
18425;SDS011;9340;48.756;9.226;2022-07-24T06:42:30;13.50;;;12.40;;
18425;SDS011;9340;48.756;9.226;2022-07-24T06:44:59;14.18;;;13.02;;
18425;SDS011;9340;48.756;9.226;2022-07-24T06:47:26;14.23;;;13.07;;
18425;SDS011;9340;48.756;9.226;2022-07-24T06:49:53;15.73;;;14.32;;
18425;SDS011;9340;48.756;9.226;2022-07-24T06:52:20;13.90;;;12.80;;
18425;SDS011;9340;48.756;9.226;2022-07-24T06:54:48;13.85;;;12.75;;
18425;SDS011;9340;48.756;9.226;2022-07-24T06:57:15;13.15;;;12.05;;
18425;SDS011;9340;48.756;9.226;2022-07-24T06:59:43;13.52;;;12.27;;
18425;SDS011;9340;48.756;9.226;2022-07-24T07:02:11;13.75;;;12.50;;
18425;SDS011;9340;48.756;9.226;2022-07-24T07:04:38;14.10;;;12.82;;
18425;SDS011;9340;48.756;9.226;2022-07-24T07:07:05;14.02;;;12.73;;
18425;SDS011;9340;48.756;9.226;2022-07-24T07:09:32;13.15;;;11.98;;
18425;SDS011;9340;48.756;9.226;2022-07-24T07:12:00;13.30;;;12.10;;
18425;SDS011;9340;48.756;9.226;2022-07-24T07:14:27;12.07;;;11.07;;
18425;SDS011;9340;48.756;9.226;2022-07-24T07:16:54;11.85;;;11.00;;
18425;SDS011;9340;48.756;9.226;2022-07-24T07:19:22;12.95;;;11.95;;
18425;SDS011;9340;48.756;9.226;2022-07-24T07:21:49;12.13;;;11.23;;
18425;SDS011;9340;48.756;9.226;2022-07-24T07:24:16;12.75;;;11.73;;
18425;SDS011;9340;48.756;9.226;2022-07-24T07:26:43;11.65;;;10.80;;
18425;SDS011;9340;48.756;9.226;2022-07-24T07:29:10;12.38;;;11.32;;
18425;SDS011;9340;48.756;9.226;2022-07-24T07:31:37;12.13;;;11.13;;
18425;SDS011;9340;48.756;9.226;2022-07-24T07:34:03;11.80;;;10.85;;
18425;SDS011;9340;48.756;9.226;2022-07-24T07:36:31;12.18;;;11.18;;
18425;SDS011;9340;48.756;9.226;2022-07-24T07:38:59;12.90;;;11.90;;
18425;SDS011;9340;48.756;9.226;2022-07-24T07:41:26;11.95;;;10.95;;
18425;SDS011;9340;48.756;9.226;2022-07-24T07:43:53;11.38;;;10.43;;
18425;SDS011;9340;48.756;9.226;2022-07-24T07:46:19;10.13;;;9.32;;
18425;SDS011;9340;48.756;9.226;2022-07-24T07:48:46;10.95;;;10.15;;
18425;SDS011;9340;48.756;9.226;2022-07-24T07:51:13;11.70;;;10.55;;
18425;SDS011;9340;48.756;9.226;2022-07-24T07:53:41;9.77;;;8.88;;
18425;SDS011;9340;48.756;9.226;2022-07-24T07:56:08;10.30;;;9.40;;
18425;SDS011;9340;48.756;9.226;2022-07-24T07:58:35;10.70;;;9.40;;
18425;SDS011;9340;48.756;9.226;2022-07-24T08:01:01;11.18;;;9.93;;
18425;SDS011;9340;48.756;9.226;2022-07-24T08:03:28;10.98;;;10.05;;
18425;SDS011;9340;48.756;9.226;2022-07-24T08:05:55;10.57;;;9.70;;
18425;SDS011;9340;48.756;9.226;2022-07-24T08:08:22;10.32;;;9.45;;
18425;SDS011;9340;48.756;9.226;2022-07-24T08:10:50;10.23;;;9.35;;
18425;SDS011;9340;48.756;9.226;2022-07-24T08:13:17;10.07;;;9.27;;
18425;SDS011;9340;48.756;9.226;2022-07-24T08:15:44;10.38;;;9.38;;
18425;SDS011;9340;48.756;9.226;2022-07-24T08:18:11;9.52;;;8.73;;
18425;SDS011;9340;48.756;9.226;2022-07-24T08:20:38;11.48;;;10.18;;
18425;SDS011;9340;48.756;9.226;2022-07-24T08:23:04;10.40;;;9.65;;
18425;SDS011;9340;48.756;9.226;2022-07-24T08:25:31;13.68;;;9.93;;
18425;SDS011;9340;48.756;9.226;2022-07-24T08:27:59;10.20;;;9.27;;
18425;SDS011;9340;48.756;9.226;2022-07-24T08:30:26;9.23;;;8.30;;
18425;SDS011;9340;48.756;9.226;2022-07-24T08:32:53;9.57;;;8.70;;
18425;SDS011;9340;48.756;9.226;2022-07-24T08:35:19;10.90;;;9.80;;
18425;SDS011;9340;48.756;9.226;2022-07-24T08:37:48;9.30;;;8.60;;
18425;SDS011;9340;48.756;9.226;2022-07-24T08:40:15;10.07;;;9.18;;
18425;SDS011;9340;48.756;9.226;2022-07-24T08:42:42;9.82;;;8.93;;
18425;SDS011;9340;48.756;9.226;2022-07-24T08:45:10;9.75;;;8.95;;
18425;SDS011;9340;48.756;9.226;2022-07-24T08:47:38;9.40;;;8.70;;
18425;SDS011;9340;48.756;9.226;2022-07-24T08:50:06;9.30;;;8.50;;
18425;SDS011;9340;48.756;9.226;2022-07-24T08:52:34;9.32;;;8.45;;
18425;SDS011;9340;48.756;9.226;2022-07-24T08:55:04;9.93;;;8.93;;
18425;SDS011;9340;48.756;9.226;2022-07-24T08:57:31;8.93;;;8.10;;
18425;SDS011;9340;48.756;9.226;2022-07-24T08:59:58;9.45;;;8.65;;
18425;SDS011;9340;48.756;9.226;2022-07-24T09:02:27;9.38;;;8.68;;
18425;SDS011;9340;48.756;9.226;2022-07-24T09:04:58;9.32;;;8.43;;
18425;SDS011;9340;48.756;9.226;2022-07-24T09:07:25;10.93;;;8.43;;
18425;SDS011;9340;48.756;9.226;2022-07-24T09:09:58;9.35;;;8.55;;
18425;SDS011;9340;48.756;9.226;2022-07-24T09:12:26;9.57;;;8.63;;
18425;SDS011;9340;48.756;9.226;2022-07-24T09:14:57;9.02;;;8.32;;
18425;SDS011;9340;48.756;9.226;2022-07-24T09:17:26;8.20;;;7.60;;
18425;SDS011;9340;48.756;9.226;2022-07-24T09:19:54;9.38;;;8.57;;
18425;SDS011;9340;48.756;9.226;2022-07-24T09:22:32;9.18;;;8.48;;
18425;SDS011;9340;48.756;9.226;2022-07-24T09:25:04;9.32;;;8.50;;
18425;SDS011;9340;48.756;9.226;2022-07-24T09:27:33;8.05;;;7.45;;
18425;SDS011;9340;48.756;9.226;2022-07-24T09:30:01;8.38;;;7.75;;
18425;SDS011;9340;48.756;9.226;2022-07-24T09:32:30;8.82;;;8.00;;
18425;SDS011;9340;48.756;9.226;2022-07-24T09:34:57;8.45;;;7.70;;
18425;SDS011;9340;48.756;9.226;2022-07-24T09:37:25;8.40;;;7.78;;
18425;SDS011;9340;48.756;9.226;2022-07-24T09:39:53;8.07;;;7.47;;
18425;SDS011;9340;48.756;9.226;2022-07-24T09:42:33;9.10;;;8.35;;
18425;SDS011;9340;48.756;9.226;2022-07-24T09:45:04;8.30;;;7.60;;
18425;SDS011;9340;48.756;9.226;2022-07-24T09:47:37;10.20;;;8.15;;
18425;SDS011;9340;48.756;9.226;2022-07-24T09:50:11;8.70;;;8.00;;
18425;SDS011;9340;48.756;9.226;2022-07-24T09:52:40;8.82;;;8.23;;
18425;SDS011;9340;48.756;9.226;2022-07-24T09:55:18;8.15;;;7.45;;
18425;SDS011;9340;48.756;9.226;2022-07-24T09:57:46;7.90;;;7.30;;
18425;SDS011;9340;48.756;9.226;2022-07-24T10:00:14;7.60;;;7.07;;
18425;SDS011;9340;48.756;9.226;2022-07-24T10:02:43;7.78;;;7.20;;
18425;SDS011;9340;48.756;9.226;2022-07-24T10:05:11;8.25;;;7.65;;
18425;SDS011;9340;48.756;9.226;2022-07-24T10:07:39;7.72;;;7.13;;
18425;SDS011;9340;48.756;9.226;2022-07-24T10:10:08;7.95;;;7.25;;
18425;SDS011;9340;48.756;9.226;2022-07-24T10:12:35;8.38;;;7.68;;
18425;SDS011;9340;48.756;9.226;2022-07-24T10:15:03;7.88;;;7.18;;
18425;SDS011;9340;48.756;9.226;2022-07-24T10:17:33;8.50;;;7.70;;
18425;SDS011;9340;48.756;9.226;2022-07-24T10:20:33;8.15;;;7.55;;
18425;SDS011;9340;48.756;9.226;2022-07-24T10:23:05;7.75;;;7.25;;
18425;SDS011;9340;48.756;9.226;2022-07-24T10:25:34;8.27;;;7.68;;
18425;SDS011;9340;48.756;9.226;2022-07-24T10:28:13;7.43;;;6.93;;
18425;SDS011;9340;48.756;9.226;2022-07-24T10:30:49;7.88;;;7.07;;
18425;SDS011;9340;48.756;9.226;2022-07-24T10:33:17;8.27;;;7.57;;
18425;SDS011;9340;48.756;9.226;2022-07-24T10:35:44;8.57;;;7.65;;
18425;SDS011;9340;48.756;9.226;2022-07-24T10:38:16;8.80;;;8.02;;
18425;SDS011;9340;48.756;9.226;2022-07-24T10:40:48;8.40;;;7.70;;
18425;SDS011;9340;48.756;9.226;2022-07-24T10:43:17;8.40;;;7.82;;
18425;SDS011;9340;48.756;9.226;2022-07-24T10:45:45;8.80;;;7.97;;
18425;SDS011;9340;48.756;9.226;2022-07-24T10:48:27;8.60;;;7.95;;
18425;SDS011;9340;48.756;9.226;2022-07-24T10:51:04;8.57;;;7.88;;
18425;SDS011;9340;48.756;9.226;2022-07-24T10:53:44;8.75;;;8.15;;
18425;SDS011;9340;48.756;9.226;2022-07-24T10:56:23;9.05;;;8.27;;
18425;SDS011;9340;48.756;9.226;2022-07-24T10:58:52;7.95;;;7.35;;
18425;SDS011;9340;48.756;9.226;2022-07-24T11:01:27;8.57;;;7.88;;
18425;SDS011;9340;48.756;9.226;2022-07-24T11:04:00;8.27;;;7.57;;
18425;SDS011;9340;48.756;9.226;2022-07-24T11:06:41;9.25;;;8.32;;
18425;SDS011;9340;48.756;9.226;2022-07-24T11:09:10;8.80;;;8.20;;
18425;SDS011;9340;48.756;9.226;2022-07-24T11:11:41;7.60;;;6.85;;
18425;SDS011;9340;48.756;9.226;2022-07-24T11:20:05;7.88;;;7.38;;
18425;SDS011;9340;48.756;9.226;2022-07-24T11:22:37;8.63;;;8.02;;
18425;SDS011;9340;48.756;9.226;2022-07-24T11:25:09;8.35;;;7.68;;
18425;SDS011;9340;48.756;9.226;2022-07-24T11:27:42;8.45;;;7.85;;
18425;SDS011;9340;48.756;9.226;2022-07-24T11:30:10;8.23;;;7.53;;
18425;SDS011;9340;48.756;9.226;2022-07-24T11:32:38;8.52;;;7.82;;
18425;SDS011;9340;48.756;9.226;2022-07-24T11:35:07;9.00;;;8.30;;
18425;SDS011;9340;48.756;9.226;2022-07-24T11:37:34;9.07;;;8.38;;
18425;SDS011;9340;48.756;9.226;2022-07-24T11:40:02;8.82;;;8.10;;
18425;SDS011;9340;48.756;9.226;2022-07-24T11:42:30;8.35;;;7.78;;
18425;SDS011;9340;48.756;9.226;2022-07-24T11:44:57;8.68;;;7.97;;
18425;SDS011;9340;48.756;9.226;2022-07-24T11:50:47;7.82;;;7.20;;
18425;SDS011;9340;48.756;9.226;2022-07-24T11:53:13;8.48;;;7.78;;
18425;SDS011;9340;48.756;9.226;2022-07-24T11:55:40;8.35;;;7.75;;
18425;SDS011;9340;48.756;9.226;2022-07-24T11:58:07;8.90;;;8.10;;
18425;SDS011;9340;48.756;9.226;2022-07-24T12:00:34;8.52;;;7.90;;
18425;SDS011;9340;48.756;9.226;2022-07-24T12:03:00;8.38;;;7.68;;
18425;SDS011;9340;48.756;9.226;2022-07-24T12:05:28;8.00;;;7.40;;
18425;SDS011;9340;48.756;9.226;2022-07-24T12:07:58;9.02;;;8.30;;
18425;SDS011;9340;48.756;9.226;2022-07-24T12:10:26;8.38;;;7.78;;
18425;SDS011;9340;48.756;9.226;2022-07-24T12:12:55;8.15;;;7.55;;
18425;SDS011;9340;48.756;9.226;2022-07-24T12:15:22;8.07;;;7.43;;
18425;SDS011;9340;48.756;9.226;2022-07-24T12:17:55;8.30;;;7.60;;
18425;SDS011;9340;48.756;9.226;2022-07-24T12:20:24;8.77;;;8.07;;
18425;SDS011;9340;48.756;9.226;2022-07-24T12:22:51;8.27;;;7.43;;
18425;SDS011;9340;48.756;9.226;2022-07-24T12:25:20;7.75;;;7.25;;
18425;SDS011;9340;48.756;9.226;2022-07-24T12:27:48;8.88;;;8.18;;
18425;SDS011;9340;48.756;9.226;2022-07-24T12:30:19;7.93;;;7.28;;
18425;SDS011;9340;48.756;9.226;2022-07-24T12:32:57;8.85;;;8.15;;
18425;SDS011;9340;48.756;9.226;2022-07-24T12:35:26;7.65;;;7.15;;
18425;SDS011;9340;48.756;9.226;2022-07-24T12:37:54;8.45;;;7.72;;
18425;SDS011;9340;48.756;9.226;2022-07-24T12:40:27;8.70;;;8.00;;
18425;SDS011;9340;48.756;9.226;2022-07-24T12:42:57;8.73;;;7.85;;
18425;SDS011;9340;48.756;9.226;2022-07-24T12:45:32;9.05;;;8.25;;
18425;SDS011;9340;48.756;9.226;2022-07-24T12:48:06;9.10;;;8.23;;
18425;SDS011;9340;48.756;9.226;2022-07-24T12:51:02;8.43;;;7.72;;
18425;SDS011;9340;48.756;9.226;2022-07-24T12:53:32;8.93;;;8.23;;
18425;SDS011;9340;48.756;9.226;2022-07-24T12:56:03;9.57;;;8.55;;
18425;SDS011;9340;48.756;9.226;2022-07-24T13:01:21;7.72;;;7.15;;
18425;SDS011;9340;48.756;9.226;2022-07-24T13:03:54;8.57;;;7.97;;
18425;SDS011;9340;48.756;9.226;2022-07-24T13:06:32;8.75;;;8.05;;
18425;SDS011;9340;48.756;9.226;2022-07-24T13:08:59;8.75;;;8.00;;
18425;SDS011;9340;48.756;9.226;2022-07-24T13:11:28;8.50;;;7.80;;
18425;SDS011;9340;48.756;9.226;2022-07-24T13:13:54;9.30;;;8.38;;
18425;SDS011;9340;48.756;9.226;2022-07-24T13:16:21;8.38;;;7.68;;
18425;SDS011;9340;48.756;9.226;2022-07-24T13:18:49;9.10;;;8.30;;
18425;SDS011;9340;48.756;9.226;2022-07-24T13:21:16;7.90;;;7.40;;
18425;SDS011;9340;48.756;9.226;2022-07-24T13:23:44;8.35;;;7.65;;
18425;SDS011;9340;48.756;9.226;2022-07-24T13:26:10;7.72;;;7.13;;
18425;SDS011;9340;48.756;9.226;2022-07-24T13:28:38;8.35;;;7.60;;
18425;SDS011;9340;48.756;9.226;2022-07-24T13:31:05;8.38;;;7.70;;
18425;SDS011;9340;48.756;9.226;2022-07-24T13:33:32;8.25;;;7.45;;
18425;SDS011;9340;48.756;9.226;2022-07-24T13:35:59;8.60;;;7.90;;
18425;SDS011;9340;48.756;9.226;2022-07-24T13:38:26;8.05;;;7.53;;
18425;SDS011;9340;48.756;9.226;2022-07-24T13:40:53;8.23;;;7.57;;
18425;SDS011;9340;48.756;9.226;2022-07-24T13:43:19;8.05;;;7.45;;
18425;SDS011;9340;48.756;9.226;2022-07-24T13:45:47;8.35;;;7.75;;
18425;SDS011;9340;48.756;9.226;2022-07-24T13:48:14;8.60;;;8.00;;
18425;SDS011;9340;48.756;9.226;2022-07-24T13:50:41;8.23;;;7.63;;
18425;SDS011;9340;48.756;9.226;2022-07-24T13:53:08;7.93;;;7.32;;
18425;SDS011;9340;48.756;9.226;2022-07-24T13:55:34;8.07;;;7.47;;
18425;SDS011;9340;48.756;9.226;2022-07-24T13:58:01;8.98;;;8.27;;
18425;SDS011;9340;48.756;9.226;2022-07-24T14:00:28;8.43;;;7.82;;
18425;SDS011;9340;48.756;9.226;2022-07-24T14:02:56;8.57;;;7.70;;
18425;SDS011;9340;48.756;9.226;2022-07-24T14:05:23;8.25;;;7.65;;
18425;SDS011;9340;48.756;9.226;2022-07-24T14:07:50;8.63;;;7.85;;
18425;SDS011;9340;48.756;9.226;2022-07-24T14:10:17;7.95;;;7.45;;
18425;SDS011;9340;48.756;9.226;2022-07-24T14:12:44;7.78;;;7.18;;
18425;SDS011;9340;48.756;9.226;2022-07-24T14:15:11;8.60;;;7.82;;
18425;SDS011;9340;48.756;9.226;2022-07-24T14:17:39;7.30;;;6.70;;
18425;SDS011;9340;48.756;9.226;2022-07-24T14:20:08;8.05;;;7.35;;
18425;SDS011;9340;48.756;9.226;2022-07-24T14:22:35;8.48;;;7.78;;
18425;SDS011;9340;48.756;9.226;2022-07-24T14:25:03;8.05;;;7.35;;
18425;SDS011;9340;48.756;9.226;2022-07-24T14:27:31;8.75;;;7.97;;
18425;SDS011;9340;48.756;9.226;2022-07-24T14:29:58;8.23;;;7.50;;
18425;SDS011;9340;48.756;9.226;2022-07-24T14:32:25;8.75;;;8.05;;
18425;SDS011;9340;48.756;9.226;2022-07-24T14:34:52;7.55;;;6.95;;
18425;SDS011;9340;48.756;9.226;2022-07-24T14:37:20;8.52;;;7.93;;
18425;SDS011;9340;48.756;9.226;2022-07-24T14:39:47;8.48;;;7.88;;
18425;SDS011;9340;48.756;9.226;2022-07-24T14:42:13;9.40;;;8.15;;
18425;SDS011;9340;48.756;9.226;2022-07-24T14:44:40;9.20;;;8.40;;
18425;SDS011;9340;48.756;9.226;2022-07-24T14:47:07;8.40;;;7.72;;
18425;SDS011;9340;48.756;9.226;2022-07-24T14:49:33;8.38;;;7.78;;
18425;SDS011;9340;48.756;9.226;2022-07-24T14:52:00;8.27;;;7.68;;
18425;SDS011;9340;48.756;9.226;2022-07-24T14:54:28;7.97;;;7.38;;
18425;SDS011;9340;48.756;9.226;2022-07-24T14:56:54;7.85;;;7.22;;
18425;SDS011;9340;48.756;9.226;2022-07-24T14:59:23;7.85;;;7.25;;
18425;SDS011;9340;48.756;9.226;2022-07-24T15:01:50;8.48;;;7.28;;
18425;SDS011;9340;48.756;9.226;2022-07-24T15:04:17;7.65;;;7.13;;